sensor_id;sensor_type;location;lat;lon;timestamp;temperature;humidity
23534;DHT22;11944;50.796;4.322;2022-07-22T00:01:21;16.90;99.90
23534;DHT22;11944;50.796;4.322;2022-07-22T00:03:49;16.80;99.90
23534;DHT22;11944;50.796;4.322;2022-07-22T00:06:16;16.80;99.90
23534;DHT22;11944;50.796;4.322;2022-07-22T00:08:44;16.80;99.90
23534;DHT22;11944;50.796;4.322;2022-07-22T00:11:11;16.60;99.90
23534;DHT22;11944;50.796;4.322;2022-07-22T00:13:39;16.50;99.90
23534;DHT22;11944;50.796;4.322;2022-07-22T00:16:06;16.40;99.90
23534;DHT22;11944;50.796;4.322;2022-07-22T00:18:34;16.30;99.90
23534;DHT22;11944;50.796;4.322;2022-07-22T00:21:01;16.30;99.90
23534;DHT22;11944;50.796;4.322;2022-07-22T00:23:29;16.10;99.90
23534;DHT22;11944;50.796;4.322;2022-07-22T00:25:57;16.00;99.90
23534;DHT22;11944;50.796;4.322;2022-07-22T00:28:25;16.00;99.90
23534;DHT22;11944;50.796;4.322;2022-07-22T00:30:52;15.90;99.90
23534;DHT22;11944;50.796;4.322;2022-07-22T00:33:20;15.80;99.90
23534;DHT22;11944;50.796;4.322;2022-07-22T00:35:47;15.80;99.90
23534;DHT22;11944;50.796;4.322;2022-07-22T00:38:15;15.80;99.90
23534;DHT22;11944;50.796;4.322;2022-07-22T00:40:42;15.90;99.90
23534;DHT22;11944;50.796;4.322;2022-07-22T00:43:10;15.80;99.90
23534;DHT22;11944;50.796;4.322;2022-07-22T00:45:37;15.80;99.90
23534;DHT22;11944;50.796;4.322;2022-07-22T00:48:06;15.80;99.90
23534;DHT22;11944;50.796;4.322;2022-07-22T00:50:33;15.80;99.90
23534;DHT22;11944;50.796;4.322;2022-07-22T00:53:01;15.70;99.90
23534;DHT22;11944;50.796;4.322;2022-07-22T00:55:29;15.60;99.90
23534;DHT22;11944;50.796;4.322;2022-07-22T00:57:56;15.50;99.90
23534;DHT22;11944;50.796;4.322;2022-07-22T01:00:24;15.40;99.90
23534;DHT22;11944;50.796;4.322;2022-07-22T01:02:52;15.50;99.90
23534;DHT22;11944;50.796;4.322;2022-07-22T01:05:19;15.50;99.90
23534;DHT22;11944;50.796;4.322;2022-07-22T01:07:47;15.40;99.90
23534;DHT22;11944;50.796;4.322;2022-07-22T01:10:15;15.40;99.90
23534;DHT22;11944;50.796;4.322;2022-07-22T01:12:42;15.40;99.90
23534;DHT22;11944;50.796;4.322;2022-07-22T01:15:10;15.40;99.90
23534;DHT22;11944;50.796;4.322;2022-07-22T01:17:37;15.20;99.90
23534;DHT22;11944;50.796;4.322;2022-07-22T01:20:06;15.20;99.90
23534;DHT22;11944;50.796;4.322;2022-07-22T01:22:34;15.20;99.90
23534;DHT22;11944;50.796;4.322;2022-07-22T01:25:02;15.10;99.90
23534;DHT22;11944;50.796;4.322;2022-07-22T01:27:30;15.10;99.90
23534;DHT22;11944;50.796;4.322;2022-07-22T01:29:57;15.10;99.90
23534;DHT22;11944;50.796;4.322;2022-07-22T01:32:25;15.10;99.90
23534;DHT22;11944;50.796;4.322;2022-07-22T01:34:52;15.10;99.90
23534;DHT22;11944;50.796;4.322;2022-07-22T01:37:20;15.10;99.90
23534;DHT22;11944;50.796;4.322;2022-07-22T01:39:48;15.00;99.90
23534;DHT22;11944;50.796;4.322;2022-07-22T01:42:16;15.10;99.90
23534;DHT22;11944;50.796;4.322;2022-07-22T01:44:43;15.00;99.90
23534;DHT22;11944;50.796;4.322;2022-07-22T01:47:11;15.20;99.90
23534;DHT22;11944;50.796;4.322;2022-07-22T01:49:39;15.10;99.90
23534;DHT22;11944;50.796;4.322;2022-07-22T01:52:06;15.10;99.90
23534;DHT22;11944;50.796;4.322;2022-07-22T01:54:34;15.00;99.90
23534;DHT22;11944;50.796;4.322;2022-07-22T01:57:02;15.00;99.90
23534;DHT22;11944;50.796;4.322;2022-07-22T01:59:29;15.00;99.90
23534;DHT22;11944;50.796;4.322;2022-07-22T02:01:57;15.00;99.90
23534;DHT22;11944;50.796;4.322;2022-07-22T02:04:24;14.90;99.90
23534;DHT22;11944;50.796;4.322;2022-07-22T02:06:52;14.80;99.90
23534;DHT22;11944;50.796;4.322;2022-07-22T02:09:20;14.80;99.90
23534;DHT22;11944;50.796;4.322;2022-07-22T02:11:47;14.80;99.90
23534;DHT22;11944;50.796;4.322;2022-07-22T02:14:15;14.70;99.90
23534;DHT22;11944;50.796;4.322;2022-07-22T02:16:42;14.70;99.90
23534;DHT22;11944;50.796;4.322;2022-07-22T02:19:10;14.60;99.90
23534;DHT22;11944;50.796;4.322;2022-07-22T02:21:38;14.50;99.90
23534;DHT22;11944;50.796;4.322;2022-07-22T02:24:06;14.50;99.90
23534;DHT22;11944;50.796;4.322;2022-07-22T02:26:33;14.50;99.90
23534;DHT22;11944;50.796;4.322;2022-07-22T02:29:01;14.50;99.90
23534;DHT22;11944;50.796;4.322;2022-07-22T02:31:29;14.50;99.90
23534;DHT22;11944;50.796;4.322;2022-07-22T02:33:56;14.50;99.90
23534;DHT22;11944;50.796;4.322;2022-07-22T02:36:24;14.50;99.90
23534;DHT22;11944;50.796;4.322;2022-07-22T02:38:51;14.40;99.90
23534;DHT22;11944;50.796;4.322;2022-07-22T02:41:19;14.40;99.90
23534;DHT22;11944;50.796;4.322;2022-07-22T02:43:47;14.50;99.90
23534;DHT22;11944;50.796;4.322;2022-07-22T02:46:15;14.40;99.90
23534;DHT22;11944;50.796;4.322;2022-07-22T02:49:02;14.30;99.90
23534;DHT22;11944;50.796;4.322;2022-07-22T02:51:50;14.30;99.90
23534;DHT22;11944;50.796;4.322;2022-07-22T02:54:17;14.30;99.90
23534;DHT22;11944;50.796;4.322;2022-07-22T02:56:45;14.30;99.90
23534;DHT22;11944;50.796;4.322;2022-07-22T02:59:12;14.30;99.90
23534;DHT22;11944;50.796;4.322;2022-07-22T03:01:40;14.30;99.90
23534;DHT22;11944;50.796;4.322;2022-07-22T03:04:08;14.30;99.90
23534;DHT22;11944;50.796;4.322;2022-07-22T03:06:35;14.20;99.90
23534;DHT22;11944;50.796;4.322;2022-07-22T03:09:03;14.20;99.90
23534;DHT22;11944;50.796;4.322;2022-07-22T03:11:31;14.30;99.90
23534;DHT22;11944;50.796;4.322;2022-07-22T03:13:58;14.20;99.90
23534;DHT22;11944;50.796;4.322;2022-07-22T03:16:26;14.30;99.90
23534;DHT22;11944;50.796;4.322;2022-07-22T03:18:53;14.30;99.90
23534;DHT22;11944;50.796;4.322;2022-07-22T03:21:21;14.30;99.90
23534;DHT22;11944;50.796;4.322;2022-07-22T03:23:48;14.20;99.90
23534;DHT22;11944;50.796;4.322;2022-07-22T03:26:17;14.20;99.90
23534;DHT22;11944;50.796;4.322;2022-07-22T03:28:45;14.20;99.90
23534;DHT22;11944;50.796;4.322;2022-07-22T03:31:13;14.30;99.90
23534;DHT22;11944;50.796;4.322;2022-07-22T03:33:40;14.20;99.90
23534;DHT22;11944;50.796;4.322;2022-07-22T03:36:08;14.20;99.90
23534;DHT22;11944;50.796;4.322;2022-07-22T03:38:36;14.10;99.90
23534;DHT22;11944;50.796;4.322;2022-07-22T03:41:04;14.20;99.90
23534;DHT22;11944;50.796;4.322;2022-07-22T03:43:32;14.10;99.90
23534;DHT22;11944;50.796;4.322;2022-07-22T03:45:59;14.10;99.90
23534;DHT22;11944;50.796;4.322;2022-07-22T03:48:27;14.10;99.90
23534;DHT22;11944;50.796;4.322;2022-07-22T03:50:54;14.10;99.90
23534;DHT22;11944;50.796;4.322;2022-07-22T03:53:22;14.10;99.90
23534;DHT22;11944;50.796;4.322;2022-07-22T03:55:49;14.10;99.90
23534;DHT22;11944;50.796;4.322;2022-07-22T03:58:18;14.10;99.90
23534;DHT22;11944;50.796;4.322;2022-07-22T04:00:45;14.10;99.90
23534;DHT22;11944;50.796;4.322;2022-07-22T04:03:13;14.20;99.90
23534;DHT22;11944;50.796;4.322;2022-07-22T04:05:41;14.20;99.90
23534;DHT22;11944;50.796;4.322;2022-07-22T04:08:09;14.20;99.90
23534;DHT22;11944;50.796;4.322;2022-07-22T04:10:36;14.00;99.90
23534;DHT22;11944;50.796;4.322;2022-07-22T04:13:04;14.00;99.90
23534;DHT22;11944;50.796;4.322;2022-07-22T04:15:31;13.90;99.90
23534;DHT22;11944;50.796;4.322;2022-07-22T04:17:59;14.00;99.90
23534;DHT22;11944;50.796;4.322;2022-07-22T04:20:26;13.90;99.90
23534;DHT22;11944;50.796;4.322;2022-07-22T04:22:54;13.90;99.90
23534;DHT22;11944;50.796;4.322;2022-07-22T04:25:22;13.90;99.90
23534;DHT22;11944;50.796;4.322;2022-07-22T04:27:49;14.00;99.90
23534;DHT22;11944;50.796;4.322;2022-07-22T04:30:18;14.00;99.90
23534;DHT22;11944;50.796;4.322;2022-07-22T04:32:46;14.10;99.90
23534;DHT22;11944;50.796;4.322;2022-07-22T04:35:14;14.20;99.90
23534;DHT22;11944;50.796;4.322;2022-07-22T04:37:41;14.40;99.90
23534;DHT22;11944;50.796;4.322;2022-07-22T04:40:10;14.60;99.90
23534;DHT22;11944;50.796;4.322;2022-07-22T04:42:38;14.70;99.90
23534;DHT22;11944;50.796;4.322;2022-07-22T04:45:05;14.90;99.90
23534;DHT22;11944;50.796;4.322;2022-07-22T04:47:33;15.10;99.90
23534;DHT22;11944;50.796;4.322;2022-07-22T04:50:01;15.20;99.90
23534;DHT22;11944;50.796;4.322;2022-07-22T04:52:28;15.40;99.90
23534;DHT22;11944;50.796;4.322;2022-07-22T04:54:56;15.60;99.90
23534;DHT22;11944;50.796;4.322;2022-07-22T04:57:25;15.70;99.90
23534;DHT22;11944;50.796;4.322;2022-07-22T04:59:53;15.90;99.90
23534;DHT22;11944;50.796;4.322;2022-07-22T05:02:21;16.00;99.90
23534;DHT22;11944;50.796;4.322;2022-07-22T05:05:08;16.20;99.90
23534;DHT22;11944;50.796;4.322;2022-07-22T05:07:35;16.40;99.90
23534;DHT22;11944;50.796;4.322;2022-07-22T05:10:03;16.50;99.90
23534;DHT22;11944;50.796;4.322;2022-07-22T05:12:31;16.50;99.90
23534;DHT22;11944;50.796;4.322;2022-07-22T05:14:59;16.60;99.90
23534;DHT22;11944;50.796;4.322;2022-07-22T05:17:26;16.70;99.90
23534;DHT22;11944;50.796;4.322;2022-07-22T05:19:54;16.90;99.90
23534;DHT22;11944;50.796;4.322;2022-07-22T05:22:21;17.00;99.90
23534;DHT22;11944;50.796;4.322;2022-07-22T05:24:49;17.10;99.90
23534;DHT22;11944;50.796;4.322;2022-07-22T05:27:16;17.20;99.90
23534;DHT22;11944;50.796;4.322;2022-07-22T05:29:44;17.40;99.90
23534;DHT22;11944;50.796;4.322;2022-07-22T05:32:13;17.30;99.90
23534;DHT22;11944;50.796;4.322;2022-07-22T05:34:41;17.20;99.90
23534;DHT22;11944;50.796;4.322;2022-07-22T05:37:08;17.40;99.90
23534;DHT22;11944;50.796;4.322;2022-07-22T05:39:36;17.70;99.90
23534;DHT22;11944;50.796;4.322;2022-07-22T05:42:03;17.60;99.90
23534;DHT22;11944;50.796;4.322;2022-07-22T05:44:31;17.60;99.90
23534;DHT22;11944;50.796;4.322;2022-07-22T05:46:58;17.60;99.90
23534;DHT22;11944;50.796;4.322;2022-07-22T05:49:26;17.60;99.90
23534;DHT22;11944;50.796;4.322;2022-07-22T05:51:54;17.50;99.90
23534;DHT22;11944;50.796;4.322;2022-07-22T05:54:42;17.30;99.90
23534;DHT22;11944;50.796;4.322;2022-07-22T05:57:10;17.40;99.90
23534;DHT22;11944;50.796;4.322;2022-07-22T05:59:37;17.40;99.90
23534;DHT22;11944;50.796;4.322;2022-07-22T06:02:05;17.60;99.90
23534;DHT22;11944;50.796;4.322;2022-07-22T06:04:33;17.90;99.90
23534;DHT22;11944;50.796;4.322;2022-07-22T06:07:00;17.60;99.90
23534;DHT22;11944;50.796;4.322;2022-07-22T06:09:28;17.50;99.90
23534;DHT22;11944;50.796;4.322;2022-07-22T06:11:55;17.40;99.90
23534;DHT22;11944;50.796;4.322;2022-07-22T06:14:23;17.40;99.90
23534;DHT22;11944;50.796;4.322;2022-07-22T06:16:50;17.70;99.90
23534;DHT22;11944;50.796;4.322;2022-07-22T06:19:18;18.10;99.90
23534;DHT22;11944;50.796;4.322;2022-07-22T06:21:45;18.20;99.90
23534;DHT22;11944;50.796;4.322;2022-07-22T06:24:13;18.40;99.90
23534;DHT22;11944;50.796;4.322;2022-07-22T06:26:40;18.50;99.90
23534;DHT22;11944;50.796;4.322;2022-07-22T06:29:08;18.70;99.90
23534;DHT22;11944;50.796;4.322;2022-07-22T06:31:35;18.50;99.90
23534;DHT22;11944;50.796;4.322;2022-07-22T06:34:03;18.30;99.90
23534;DHT22;11944;50.796;4.322;2022-07-22T06:36:33;18.20;99.90
23534;DHT22;11944;50.796;4.322;2022-07-22T06:39:01;18.40;99.90
23534;DHT22;11944;50.796;4.322;2022-07-22T06:41:29;18.50;99.90
23534;DHT22;11944;50.796;4.322;2022-07-22T06:43:56;18.50;99.90
23534;DHT22;11944;50.796;4.322;2022-07-22T06:46:24;18.50;99.90
23534;DHT22;11944;50.796;4.322;2022-07-22T06:48:51;18.50;99.90
23534;DHT22;11944;50.796;4.322;2022-07-22T06:51:19;18.40;99.90
23534;DHT22;11944;50.796;4.322;2022-07-22T06:53:47;18.50;99.90
23534;DHT22;11944;50.796;4.322;2022-07-22T06:56:14;19.10;99.90
23534;DHT22;11944;50.796;4.322;2022-07-22T06:58:42;19.30;99.90
23534;DHT22;11944;50.796;4.322;2022-07-22T07:01:09;19.60;99.90
23534;DHT22;11944;50.796;4.322;2022-07-22T07:03:37;19.80;99.90
23534;DHT22;11944;50.796;4.322;2022-07-22T07:06:06;19.90;99.90
23534;DHT22;11944;50.796;4.322;2022-07-22T07:08:34;20.20;99.90
23534;DHT22;11944;50.796;4.322;2022-07-22T07:11:02;19.80;99.90
23534;DHT22;11944;50.796;4.322;2022-07-22T07:13:30;20.00;99.90
23534;DHT22;11944;50.796;4.322;2022-07-22T07:15:58;20.20;99.90
23534;DHT22;11944;50.796;4.322;2022-07-22T07:18:25;20.40;99.90
23534;DHT22;11944;50.796;4.322;2022-07-22T07:20:53;20.40;99.90
23534;DHT22;11944;50.796;4.322;2022-07-22T07:23:21;20.20;99.90
23534;DHT22;11944;50.796;4.322;2022-07-22T07:25:49;20.30;99.90
23534;DHT22;11944;50.796;4.322;2022-07-22T07:28:16;20.50;99.90
23534;DHT22;11944;50.796;4.322;2022-07-22T07:30:44;20.20;99.90
23534;DHT22;11944;50.796;4.322;2022-07-22T07:33:11;20.50;99.90
23534;DHT22;11944;50.796;4.322;2022-07-22T07:35:39;20.10;99.90
23534;DHT22;11944;50.796;4.322;2022-07-22T07:38:07;20.40;99.90
23534;DHT22;11944;50.796;4.322;2022-07-22T07:40:53;20.70;99.90
23534;DHT22;11944;50.796;4.322;2022-07-22T07:43:21;20.10;99.90
23534;DHT22;11944;50.796;4.322;2022-07-22T07:45:48;20.00;99.90
23534;DHT22;11944;50.796;4.322;2022-07-22T07:48:22;19.90;99.90
23534;DHT22;11944;50.796;4.322;2022-07-22T07:50:50;19.60;99.90
23534;DHT22;11944;50.796;4.322;2022-07-22T07:53:18;19.60;99.90
23534;DHT22;11944;50.796;4.322;2022-07-22T07:55:45;19.90;99.90
23534;DHT22;11944;50.796;4.322;2022-07-22T07:58:13;19.60;99.90
23534;DHT22;11944;50.796;4.322;2022-07-22T08:00:40;19.80;99.90
23534;DHT22;11944;50.796;4.322;2022-07-22T08:03:09;20.20;99.90
23534;DHT22;11944;50.796;4.322;2022-07-22T08:05:37;20.10;99.90
23534;DHT22;11944;50.796;4.322;2022-07-22T08:08:07;19.60;99.90
23534;DHT22;11944;50.796;4.322;2022-07-22T08:10:36;19.60;99.90
23534;DHT22;11944;50.796;4.322;2022-07-22T08:13:04;19.40;99.90
23534;DHT22;11944;50.796;4.322;2022-07-22T08:15:32;18.90;99.90
23534;DHT22;11944;50.796;4.322;2022-07-22T08:18:00;19.20;99.90
23534;DHT22;11944;50.796;4.322;2022-07-22T08:20:27;19.90;99.90
23534;DHT22;11944;50.796;4.322;2022-07-22T08:22:55;19.90;99.90
23534;DHT22;11944;50.796;4.322;2022-07-22T08:25:26;20.00;99.90
23534;DHT22;11944;50.796;4.322;2022-07-22T08:28:15;20.20;99.90
23534;DHT22;11944;50.796;4.322;2022-07-22T08:30:26;20.30;99.90
23534;DHT22;11944;50.796;4.322;2022-07-22T08:32:55;20.10;99.90
23534;DHT22;11944;50.796;4.322;2022-07-22T08:35:23;20.70;99.90
23534;DHT22;11944;50.796;4.322;2022-07-22T08:37:51;21.30;99.90
23534;DHT22;11944;50.796;4.322;2022-07-22T08:40:44;20.60;99.90
23534;DHT22;11944;50.796;4.322;2022-07-22T08:43:10;20.90;99.90
23534;DHT22;11944;50.796;4.322;2022-07-22T08:45:40;21.30;99.90
23534;DHT22;11944;50.796;4.322;2022-07-22T08:48:09;21.50;99.90
23534;DHT22;11944;50.796;4.322;2022-07-22T08:50:36;21.60;99.90
23534;DHT22;11944;50.796;4.322;2022-07-22T08:53:10;22.50;99.90
23534;DHT22;11944;50.796;4.322;2022-07-22T08:55:45;23.20;99.90
23534;DHT22;11944;50.796;4.322;2022-07-22T08:58:14;23.20;99.90
23534;DHT22;11944;50.796;4.322;2022-07-22T09:00:43;23.60;99.90
23534;DHT22;11944;50.796;4.322;2022-07-22T09:03:25;24.60;99.90
23534;DHT22;11944;50.796;4.322;2022-07-22T09:05:54;25.10;99.90
23534;DHT22;11944;50.796;4.322;2022-07-22T09:08:22;25.00;99.90
23534;DHT22;11944;50.796;4.322;2022-07-22T09:10:52;24.80;99.90
23534;DHT22;11944;50.796;4.322;2022-07-22T09:13:20;23.40;99.90
23534;DHT22;11944;50.796;4.322;2022-07-22T09:15:50;22.70;99.90
23534;DHT22;11944;50.796;4.322;2022-07-22T09:18:18;23.40;99.90
23534;DHT22;11944;50.796;4.322;2022-07-22T09:20:45;24.80;99.90
23534;DHT22;11944;50.796;4.322;2022-07-22T09:23:18;25.60;99.90
23534;DHT22;11944;50.796;4.322;2022-07-22T09:25:48;25.90;99.90
23534;DHT22;11944;50.796;4.322;2022-07-22T09:28:18;25.40;99.90
23534;DHT22;11944;50.796;4.322;2022-07-22T09:30:52;25.70;99.90
23534;DHT22;11944;50.796;4.322;2022-07-22T09:33:21;26.10;99.90
23534;DHT22;11944;50.796;4.322;2022-07-22T09:35:50;26.20;99.90
23534;DHT22;11944;50.796;4.322;2022-07-22T09:38:26;26.10;99.90
23534;DHT22;11944;50.796;4.322;2022-07-22T09:40:48;26.00;99.90
23534;DHT22;11944;50.796;4.322;2022-07-22T09:43:18;25.50;99.90
23534;DHT22;11944;50.796;4.322;2022-07-22T09:48:18;26.60;99.90
23534;DHT22;11944;50.796;4.322;2022-07-22T09:50:46;27.40;99.90
23534;DHT22;11944;50.796;4.322;2022-07-22T09:53:20;27.00;98.60
23534;DHT22;11944;50.796;4.322;2022-07-22T09:55:44;24.30;99.90
23534;DHT22;11944;50.796;4.322;2022-07-22T09:58:12;22.90;99.90
23534;DHT22;11944;50.796;4.322;2022-07-22T10:00:43;22.70;99.90
23534;DHT22;11944;50.796;4.322;2022-07-22T10:03:19;22.80;99.90
23534;DHT22;11944;50.796;4.322;2022-07-22T10:08:11;22.80;99.90
23534;DHT22;11944;50.796;4.322;2022-07-22T10:10:46;22.50;99.90
23534;DHT22;11944;50.796;4.322;2022-07-22T10:13:11;22.00;99.90
23534;DHT22;11944;50.796;4.322;2022-07-22T10:15:42;22.90;99.90
23534;DHT22;11944;50.796;4.322;2022-07-22T10:18:18;23.10;99.90
23534;DHT22;11944;50.796;4.322;2022-07-22T10:20:46;24.00;99.90
23534;DHT22;11944;50.796;4.322;2022-07-22T10:23:14;23.80;99.90
23534;DHT22;11944;50.796;4.322;2022-07-22T10:25:56;23.90;99.90
23534;DHT22;11944;50.796;4.322;2022-07-22T10:28:31;24.70;99.90
23534;DHT22;11944;50.796;4.322;2022-07-22T10:31:21;24.60;99.90
23534;DHT22;11944;50.796;4.322;2022-07-22T10:33:56;25.00;99.90
23534;DHT22;11944;50.796;4.322;2022-07-22T10:36:38;25.30;99.90
23534;DHT22;11944;50.796;4.322;2022-07-22T10:39:13;25.50;99.90
23534;DHT22;11944;50.796;4.322;2022-07-22T10:41:43;25.80;99.90
23534;DHT22;11944;50.796;4.322;2022-07-22T10:44:12;26.50;99.90
23534;DHT22;11944;50.796;4.322;2022-07-22T10:46:55;26.90;99.10
23534;DHT22;11944;50.796;4.322;2022-07-22T10:49:25;27.40;99.00
23534;DHT22;11944;50.796;4.322;2022-07-22T10:52:10;27.30;97.90
23534;DHT22;11944;50.796;4.322;2022-07-22T10:55:17;26.40;98.90
23534;DHT22;11944;50.796;4.322;2022-07-22T10:57:45;26.00;99.60
23534;DHT22;11944;50.796;4.322;2022-07-22T11:00:16;27.10;98.60
23534;DHT22;11944;50.796;4.322;2022-07-22T11:02:47;27.80;98.20
23534;DHT22;11944;50.796;4.322;2022-07-22T11:05:24;27.40;97.10
23534;DHT22;11944;50.796;4.322;2022-07-22T11:07:46;26.80;97.90
23534;DHT22;11944;50.796;4.322;2022-07-22T11:10:16;26.10;98.90
23534;DHT22;11944;50.796;4.322;2022-07-22T11:12:48;26.30;99.60
23534;DHT22;11944;50.796;4.322;2022-07-22T11:15:24;26.50;98.30
23534;DHT22;11944;50.796;4.322;2022-07-22T11:17:47;26.50;98.60
23534;DHT22;11944;50.796;4.322;2022-07-22T11:20:14;25.10;99.40
23534;DHT22;11944;50.796;4.322;2022-07-22T11:22:44;24.30;99.90
23534;DHT22;11944;50.796;4.322;2022-07-22T11:25:13;24.80;99.90
23534;DHT22;11944;50.796;4.322;2022-07-22T11:27:52;25.30;99.90
23534;DHT22;11944;50.796;4.322;2022-07-22T11:30:24;25.70;99.40
23534;DHT22;11944;50.796;4.322;2022-07-22T11:32:54;25.10;99.80
23534;DHT22;11944;50.796;4.322;2022-07-22T11:35:24;25.00;99.90
23534;DHT22;11944;50.796;4.322;2022-07-22T11:37:57;25.20;99.90
23534;DHT22;11944;50.796;4.322;2022-07-22T11:40:31;25.30;99.90
23534;DHT22;11944;50.796;4.322;2022-07-22T11:43:05;25.50;99.90
23534;DHT22;11944;50.796;4.322;2022-07-22T11:45:53;25.60;99.70
23534;DHT22;11944;50.796;4.322;2022-07-22T11:48:12;25.30;99.90
23534;DHT22;11944;50.796;4.322;2022-07-22T11:50:46;25.30;99.90
23534;DHT22;11944;50.796;4.322;2022-07-22T11:53:14;24.50;99.90
23534;DHT22;11944;50.796;4.322;2022-07-22T11:55:47;23.80;99.90
23534;DHT22;11944;50.796;4.322;2022-07-22T11:58:17;24.20;99.90
23534;DHT22;11944;50.796;4.322;2022-07-22T12:00:46;24.70;99.90
23534;DHT22;11944;50.796;4.322;2022-07-22T12:03:17;24.40;99.90
23534;DHT22;11944;50.796;4.322;2022-07-22T12:05:51;23.80;99.90
23534;DHT22;11944;50.796;4.322;2022-07-22T12:08:19;23.90;99.90
23534;DHT22;11944;50.796;4.322;2022-07-22T12:10:47;24.30;99.90
23534;DHT22;11944;50.796;4.322;2022-07-22T12:13:16;24.80;99.90
23534;DHT22;11944;50.796;4.322;2022-07-22T12:15:43;25.40;99.90
23534;DHT22;11944;50.796;4.322;2022-07-22T12:18:27;25.90;99.90
23534;DHT22;11944;50.796;4.322;2022-07-22T12:20:55;26.30;99.90
23534;DHT22;11944;50.796;4.322;2022-07-22T12:23:25;26.40;99.90
23534;DHT22;11944;50.796;4.322;2022-07-22T12:25:58;26.50;99.90
23534;DHT22;11944;50.796;4.322;2022-07-22T12:28:27;26.50;99.00
23534;DHT22;11944;50.796;4.322;2022-07-22T12:30:55;26.40;99.90
23534;DHT22;11944;50.796;4.322;2022-07-22T12:33:23;25.80;99.40
23534;DHT22;11944;50.796;4.322;2022-07-22T12:36:03;25.40;99.60
23534;DHT22;11944;50.796;4.322;2022-07-22T12:38:35;25.20;99.90
23534;DHT22;11944;50.796;4.322;2022-07-22T12:41:25;24.30;99.90
23534;DHT22;11944;50.796;4.322;2022-07-22T12:43:52;24.20;99.90
23534;DHT22;11944;50.796;4.322;2022-07-22T12:46:20;24.00;99.90
23534;DHT22;11944;50.796;4.322;2022-07-22T12:48:58;24.00;99.90
23534;DHT22;11944;50.796;4.322;2022-07-22T12:51:27;24.60;99.90
23534;DHT22;11944;50.796;4.322;2022-07-22T12:53:55;24.30;99.90
23534;DHT22;11944;50.796;4.322;2022-07-22T12:56:22;24.60;99.90
23534;DHT22;11944;50.796;4.322;2022-07-22T12:58:50;25.10;99.90
23534;DHT22;11944;50.796;4.322;2022-07-22T13:01:17;25.00;99.90
23534;DHT22;11944;50.796;4.322;2022-07-22T13:03:45;24.60;99.90
23534;DHT22;11944;50.796;4.322;2022-07-22T13:06:13;25.10;99.90
23534;DHT22;11944;50.796;4.322;2022-07-22T13:08:40;25.50;99.90
23534;DHT22;11944;50.796;4.322;2022-07-22T13:11:08;25.90;99.90
23534;DHT22;11944;50.796;4.322;2022-07-22T13:13:35;25.70;99.90
23534;DHT22;11944;50.796;4.322;2022-07-22T13:16:03;25.70;99.50
23534;DHT22;11944;50.796;4.322;2022-07-22T13:18:31;25.40;99.90
23534;DHT22;11944;50.796;4.322;2022-07-22T13:20:58;25.20;99.90
23534;DHT22;11944;50.796;4.322;2022-07-22T13:23:26;25.30;99.90
23534;DHT22;11944;50.796;4.322;2022-07-22T13:25:54;25.40;99.90
23534;DHT22;11944;50.796;4.322;2022-07-22T13:28:22;25.70;99.90
23534;DHT22;11944;50.796;4.322;2022-07-22T13:30:49;25.20;99.90
23534;DHT22;11944;50.796;4.322;2022-07-22T13:33:17;25.50;99.90
23534;DHT22;11944;50.796;4.322;2022-07-22T13:35:44;25.70;99.80
23534;DHT22;11944;50.796;4.322;2022-07-22T13:38:12;25.80;99.90
23534;DHT22;11944;50.796;4.322;2022-07-22T13:40:46;25.80;99.90
23534;DHT22;11944;50.796;4.322;2022-07-22T13:43:12;25.90;99.90
23534;DHT22;11944;50.796;4.322;2022-07-22T13:45:40;25.80;99.90
23534;DHT22;11944;50.796;4.322;2022-07-22T13:48:07;25.00;99.90
23534;DHT22;11944;50.796;4.322;2022-07-22T13:50:35;25.00;99.90
23534;DHT22;11944;50.796;4.322;2022-07-22T13:53:05;25.00;99.90
23534;DHT22;11944;50.796;4.322;2022-07-22T13:55:32;25.20;99.90
23534;DHT22;11944;50.796;4.322;2022-07-22T13:58:00;25.30;99.90
23534;DHT22;11944;50.796;4.322;2022-07-22T14:00:28;25.30;99.90
23534;DHT22;11944;50.796;4.322;2022-07-22T14:02:55;25.20;99.90
23534;DHT22;11944;50.796;4.322;2022-07-22T14:05:23;25.30;99.90
23534;DHT22;11944;50.796;4.322;2022-07-22T14:07:51;25.40;99.90
23534;DHT22;11944;50.796;4.322;2022-07-22T14:10:18;25.10;99.90
23534;DHT22;11944;50.796;4.322;2022-07-22T14:12:46;25.10;99.90
23534;DHT22;11944;50.796;4.322;2022-07-22T14:15:17;25.30;99.90
23534;DHT22;11944;50.796;4.322;2022-07-22T14:17:46;25.00;99.90
23534;DHT22;11944;50.796;4.322;2022-07-22T14:20:14;25.10;99.90
23534;DHT22;11944;50.796;4.322;2022-07-22T14:22:41;24.60;99.90
23534;DHT22;11944;50.796;4.322;2022-07-22T14:25:09;24.70;99.90
23534;DHT22;11944;50.796;4.322;2022-07-22T14:27:36;24.80;99.90
23534;DHT22;11944;50.796;4.322;2022-07-22T14:30:05;24.80;99.90
23534;DHT22;11944;50.796;4.322;2022-07-22T14:32:32;24.60;99.90
23534;DHT22;11944;50.796;4.322;2022-07-22T14:35:00;24.00;99.90
23534;DHT22;11944;50.796;4.322;2022-07-22T14:37:28;23.80;99.90
23534;DHT22;11944;50.796;4.322;2022-07-22T14:39:56;23.80;99.90
23534;DHT22;11944;50.796;4.322;2022-07-22T14:42:25;23.90;99.90
23534;DHT22;11944;50.796;4.322;2022-07-22T14:44:52;24.10;99.90
23534;DHT22;11944;50.796;4.322;2022-07-22T14:47:20;24.20;99.90
23534;DHT22;11944;50.796;4.322;2022-07-22T14:49:47;24.40;99.90
23534;DHT22;11944;50.796;4.322;2022-07-22T14:52:15;24.50;99.90
23534;DHT22;11944;50.796;4.322;2022-07-22T14:54:42;24.60;99.90
23534;DHT22;11944;50.796;4.322;2022-07-22T14:57:10;24.50;99.90
23534;DHT22;11944;50.796;4.322;2022-07-22T14:59:38;24.50;99.90
23534;DHT22;11944;50.796;4.322;2022-07-22T15:02:06;24.50;99.90
23534;DHT22;11944;50.796;4.322;2022-07-22T15:04:34;24.60;99.90
23534;DHT22;11944;50.796;4.322;2022-07-22T15:07:01;24.70;99.90
23534;DHT22;11944;50.796;4.322;2022-07-22T15:09:29;24.60;99.90
23534;DHT22;11944;50.796;4.322;2022-07-22T15:11:57;24.50;99.90
23534;DHT22;11944;50.796;4.322;2022-07-22T15:14:27;24.40;99.90
23534;DHT22;11944;50.796;4.322;2022-07-22T15:16:54;24.30;99.90
23534;DHT22;11944;50.796;4.322;2022-07-22T15:19:24;24.60;99.90
23534;DHT22;11944;50.796;4.322;2022-07-22T15:21:59;24.60;99.90
23534;DHT22;11944;50.796;4.322;2022-07-22T15:24:28;24.80;99.90
23534;DHT22;11944;50.796;4.322;2022-07-22T15:26:55;24.80;99.90
23534;DHT22;11944;50.796;4.322;2022-07-22T15:29:23;24.70;99.90
23534;DHT22;11944;50.796;4.322;2022-07-22T15:31:50;24.60;99.90
23534;DHT22;11944;50.796;4.322;2022-07-22T15:34:18;24.40;99.90
23534;DHT22;11944;50.796;4.322;2022-07-22T15:36:48;24.40;99.90
23534;DHT22;11944;50.796;4.322;2022-07-22T15:39:16;24.50;99.90
23534;DHT22;11944;50.796;4.322;2022-07-22T15:41:46;24.60;99.90
23534;DHT22;11944;50.796;4.322;2022-07-22T15:44:14;24.70;99.90
23534;DHT22;11944;50.796;4.322;2022-07-22T15:46:43;24.60;99.90